sensor_id;sensor_type;location;lat;lon;timestamp;temperature;humidity
6556;DHT22;3311;48.32423000;14.29074500;2023-02-01T00:01:10;10.00;59.90
6556;DHT22;3311;48.32423000;14.29074500;2023-02-01T00:03:37;10.00;60.00
6556;DHT22;3311;48.32423000;14.29074500;2023-02-01T00:06:05;9.90;61.00
6556;DHT22;3311;48.32423000;14.29074500;2023-02-01T00:08:32;9.80;61.30
6556;DHT22;3311;48.32423000;14.29074500;2023-02-01T00:11:04;9.90;61.50
6556;DHT22;3311;48.32423000;14.29074500;2023-02-01T00:13:33;9.90;61.50
6556;DHT22;3311;48.32423000;14.29074500;2023-02-01T00:16:06;10.00;60.30
6556;DHT22;3311;48.32423000;14.29074500;2023-02-01T00:18:34;9.90;61.30
6556;DHT22;3311;48.32423000;14.29074500;2023-02-01T00:21:01;9.90;61.40
6556;DHT22;3311;48.32423000;14.29074500;2023-02-01T00:23:31;9.90;61.60
6556;DHT22;3311;48.32423000;14.29074500;2023-02-01T00:26:01;9.90;61.50
6556;DHT22;3311;48.32423000;14.29074500;2023-02-01T00:28:29;9.90;62.20
6556;DHT22;3311;48.32423000;14.29074500;2023-02-01T00:30:57;9.90;61.70
6556;DHT22;3311;48.32423000;14.29074500;2023-02-01T00:33:25;9.90;61.70
6556;DHT22;3311;48.32423000;14.29074500;2023-02-01T00:35:56;9.90;61.60
6556;DHT22;3311;48.32423000;14.29074500;2023-02-01T00:38:24;10.00;60.50
6556;DHT22;3311;48.32423000;14.29074500;2023-02-01T00:40:51;10.00;60.40
6556;DHT22;3311;48.32423000;14.29074500;2023-02-01T00:43:20;10.10;60.50
6556;DHT22;3311;48.32423000;14.29074500;2023-02-01T00:45:47;10.00;60.50
6556;DHT22;3311;48.32423000;14.29074500;2023-02-01T00:48:14;10.00;60.30
6556;DHT22;3311;48.32423000;14.29074500;2023-02-01T00:50:42;10.10;60.40
6556;DHT22;3311;48.32423000;14.29074500;2023-02-01T00:53:10;10.20;60.10
6556;DHT22;3311;48.32423000;14.29074500;2023-02-01T00:55:38;10.20;60.00
6556;DHT22;3311;48.32423000;14.29074500;2023-02-01T00:58:05;10.10;60.10
6556;DHT22;3311;48.32423000;14.29074500;2023-02-01T01:00:36;10.00;60.10
6556;DHT22;3311;48.32423000;14.29074500;2023-02-01T01:03:04;10.00;60.40
6556;DHT22;3311;48.32423000;14.29074500;2023-02-01T01:05:44;9.90;61.60
6556;DHT22;3311;48.32423000;14.29074500;2023-02-01T01:08:11;9.90;61.80
6556;DHT22;3311;48.32423000;14.29074500;2023-02-01T01:10:39;9.90;61.80
6556;DHT22;3311;48.32423000;14.29074500;2023-02-01T01:13:07;9.90;61.70
6556;DHT22;3311;48.32423000;14.29074500;2023-02-01T01:15:38;9.90;61.70
6556;DHT22;3311;48.32423000;14.29074500;2023-02-01T01:18:06;9.90;61.60
6556;DHT22;3311;48.32423000;14.29074500;2023-02-01T01:20:35;9.80;61.90
6556;DHT22;3311;48.32423000;14.29074500;2023-02-01T01:23:03;9.90;62.00
6556;DHT22;3311;48.32423000;14.29074500;2023-02-01T01:25:31;9.90;61.90
6556;DHT22;3311;48.32423000;14.29074500;2023-02-01T01:27:58;9.90;61.90
6556;DHT22;3311;48.32423000;14.29074500;2023-02-01T01:30:26;9.90;61.90
6556;DHT22;3311;48.32423000;14.29074500;2023-02-01T01:32:54;9.90;61.90
6556;DHT22;3311;48.32423000;14.29074500;2023-02-01T01:35:21;10.00;60.80
6556;DHT22;3311;48.32423000;14.29074500;2023-02-01T01:37:49;10.00;60.70
6556;DHT22;3311;48.32423000;14.29074500;2023-02-01T01:40:16;10.00;60.70
6556;DHT22;3311;48.32423000;14.29074500;2023-02-01T01:42:44;10.00;60.60
6556;DHT22;3311;48.32423000;14.29074500;2023-02-01T01:45:22;10.00;60.70
6556;DHT22;3311;48.32423000;14.29074500;2023-02-01T01:47:55;9.90;61.70
6556;DHT22;3311;48.32423000;14.29074500;2023-02-01T01:50:28;9.90;61.80
6556;DHT22;3311;48.32423000;14.29074500;2023-02-01T01:52:58;10.00;60.70
6556;DHT22;3311;48.32423000;14.29074500;2023-02-01T01:55:30;9.90;61.90
6556;DHT22;3311;48.32423000;14.29074500;2023-02-01T01:58:01;10.00;60.70
6556;DHT22;3311;48.32423000;14.29074500;2023-02-01T02:00:32;10.10;60.80
6556;DHT22;3311;48.32423000;14.29074500;2023-02-01T02:03:05;10.10;60.30
6556;DHT22;3311;48.32423000;14.29074500;2023-02-01T02:05:34;10.10;60.20
6556;DHT22;3311;48.32423000;14.29074500;2023-02-01T02:08:01;10.20;60.30
6556;DHT22;3311;48.32423000;14.29074500;2023-02-01T02:10:29;10.20;60.30
6556;DHT22;3311;48.32423000;14.29074500;2023-02-01T02:13:12;10.20;60.10
6556;DHT22;3311;48.32423000;14.29074500;2023-02-01T02:15:45;10.30;60.00
6556;DHT22;3311;48.32423000;14.29074500;2023-02-01T02:18:18;10.20;60.00
6556;DHT22;3311;48.32423000;14.29074500;2023-02-01T02:21:02;10.20;60.30
6556;DHT22;3311;48.32423000;14.29074500;2023-02-01T02:26:54;10.10;60.30
6556;DHT22;3311;48.32423000;14.29074500;2023-02-01T02:35:35;10.10;60.30
6556;DHT22;3311;48.32423000;14.29074500;2023-02-01T02:38:14;10.20;60.90
6556;DHT22;3311;48.32423000;14.29074500;2023-02-01T02:40:48;10.20;60.00
6556;DHT22;3311;48.32423000;14.29074500;2023-02-01T02:43:22;10.20;59.90
6556;DHT22;3311;48.32423000;14.29074500;2023-02-01T02:46:14;10.20;60.00
6556;DHT22;3311;48.32423000;14.29074500;2023-02-01T02:49:04;10.20;60.10
6556;DHT22;3311;48.32423000;14.29074500;2023-02-01T02:51:41;10.20;60.30
6556;DHT22;3311;48.32423000;14.29074500;2023-02-01T02:54:31;10.20;60.40
6556;DHT22;3311;48.32423000;14.29074500;2023-02-01T02:57:22;10.20;60.40
6556;DHT22;3311;48.32423000;14.29074500;2023-02-01T03:00:10;10.20;60.30
6556;DHT22;3311;48.32423000;14.29074500;2023-02-01T03:02:56;10.20;60.30
6556;DHT22;3311;48.32423000;14.29074500;2023-02-01T03:05:43;10.20;60.20
6556;DHT22;3311;48.32423000;14.29074500;2023-02-01T03:08:14;10.20;60.60
6556;DHT22;3311;48.32423000;14.29074500;2023-02-01T03:10:48;10.20;60.60
6556;DHT22;3311;48.32423000;14.29074500;2023-02-01T03:13:26;10.10;60.60
6556;DHT22;3311;48.32423000;14.29074500;2023-02-01T03:16:00;10.20;60.60
6556;DHT22;3311;48.32423000;14.29074500;2023-02-01T03:18:35;10.30;60.40
6556;DHT22;3311;48.32423000;14.29074500;2023-02-01T03:21:07;10.30;60.40
6556;DHT22;3311;48.32423000;14.29074500;2023-02-01T03:23:38;10.20;60.50
6556;DHT22;3311;48.32423000;14.29074500;2023-02-01T03:26:09;10.20;60.50
6556;DHT22;3311;48.32423000;14.29074500;2023-02-01T03:28:39;10.20;60.50
6556;DHT22;3311;48.32423000;14.29074500;2023-02-01T03:31:09;10.20;60.60
6556;DHT22;3311;48.32423000;14.29074500;2023-02-01T03:33:36;10.20;60.60
6556;DHT22;3311;48.32423000;14.29074500;2023-02-01T03:36:11;10.30;60.70
6556;DHT22;3311;48.32423000;14.29074500;2023-02-01T03:38:50;10.30;60.50
6556;DHT22;3311;48.32423000;14.29074500;2023-02-01T03:41:23;10.30;60.60
6556;DHT22;3311;48.32423000;14.29074500;2023-02-01T03:43:55;10.20;60.60
6556;DHT22;3311;48.32423000;14.29074500;2023-02-01T03:46:27;10.30;60.70
6556;DHT22;3311;48.32423000;14.29074500;2023-02-01T03:49:02;10.30;60.80
6556;DHT22;3311;48.32423000;14.29074500;2023-02-01T03:51:31;10.30;60.80
6556;DHT22;3311;48.32423000;14.29074500;2023-02-01T03:54:02;10.20;60.70
6556;DHT22;3311;48.32423000;14.29074500;2023-02-01T03:56:32;10.30;60.70
6556;DHT22;3311;48.32423000;14.29074500;2023-02-01T03:59:02;10.30;60.80
6556;DHT22;3311;48.32423000;14.29074500;2023-02-01T04:01:30;10.20;60.50
6556;DHT22;3311;48.32423000;14.29074500;2023-02-01T04:03:58;10.20;60.80
6556;DHT22;3311;48.32423000;14.29074500;2023-02-01T04:06:25;10.20;60.70
6556;DHT22;3311;48.32423000;14.29074500;2023-02-01T04:08:53;10.20;60.80
6556;DHT22;3311;48.32423000;14.29074500;2023-02-01T04:11:22;10.30;60.40
6556;DHT22;3311;48.32423000;14.29074500;2023-02-01T04:13:49;10.30;60.50
6556;DHT22;3311;48.32423000;14.29074500;2023-02-01T04:16:16;10.30;60.30
6556;DHT22;3311;48.32423000;14.29074500;2023-02-01T04:18:43;10.30;60.30
6556;DHT22;3311;48.32423000;14.29074500;2023-02-01T04:21:10;10.40;60.30
6556;DHT22;3311;48.32423000;14.29074500;2023-02-01T04:23:38;10.40;60.20
6556;DHT22;3311;48.32423000;14.29074500;2023-02-01T04:26:05;10.40;60.10
6556;DHT22;3311;48.32423000;14.29074500;2023-02-01T04:28:34;10.40;60.50
6556;DHT22;3311;48.32423000;14.29074500;2023-02-01T04:31:01;10.40;60.20
6556;DHT22;3311;48.32423000;14.29074500;2023-02-01T04:33:28;10.40;60.30
6556;DHT22;3311;48.32423000;14.29074500;2023-02-01T04:35:55;10.40;60.10
6556;DHT22;3311;48.32423000;14.29074500;2023-02-01T04:38:22;10.50;60.10
6556;DHT22;3311;48.32423000;14.29074500;2023-02-01T04:40:50;10.40;59.90
6556;DHT22;3311;48.32423000;14.29074500;2023-02-01T04:43:17;10.40;59.90
6556;DHT22;3311;48.32423000;14.29074500;2023-02-01T04:45:49;10.40;59.80
6556;DHT22;3311;48.32423000;14.29074500;2023-02-01T04:48:18;10.40;59.90
6556;DHT22;3311;48.32423000;14.29074500;2023-02-01T04:50:46;10.40;59.90
6556;DHT22;3311;48.32423000;14.29074500;2023-02-01T04:53:15;10.40;59.90
6556;DHT22;3311;48.32423000;14.29074500;2023-02-01T04:55:43;10.40;60.00
6556;DHT22;3311;48.32423000;14.29074500;2023-02-01T04:58:11;10.40;59.80
6556;DHT22;3311;48.32423000;14.29074500;2023-02-01T05:00:38;10.50;59.90
6556;DHT22;3311;48.32423000;14.29074500;2023-02-01T05:03:07;10.50;59.70
6556;DHT22;3311;48.32423000;14.29074500;2023-02-01T05:05:34;10.40;59.70
6556;DHT22;3311;48.32423000;14.29074500;2023-02-01T05:08:01;10.40;59.70
6556;DHT22;3311;48.32423000;14.29074500;2023-02-01T05:10:29;10.50;59.80
6556;DHT22;3311;48.32423000;14.29074500;2023-02-01T05:12:56;10.50;59.70
6556;DHT22;3311;48.32423000;14.29074500;2023-02-01T05:15:40;10.50;59.50
6556;DHT22;3311;48.32423000;14.29074500;2023-02-01T05:18:09;10.50;59.50
6556;DHT22;3311;48.32423000;14.29074500;2023-02-01T05:20:36;10.50;59.50
6556;DHT22;3311;48.32423000;14.29074500;2023-02-01T05:23:03;10.60;59.30
6556;DHT22;3311;48.32423000;14.29074500;2023-02-01T05:25:31;10.60;59.40
6556;DHT22;3311;48.32423000;14.29074500;2023-02-01T05:27:58;10.50;59.10
6556;DHT22;3311;48.32423000;14.29074500;2023-02-01T05:30:26;10.50;59.30
6556;DHT22;3311;48.32423000;14.29074500;2023-02-01T05:32:53;10.50;59.20
6556;DHT22;3311;48.32423000;14.29074500;2023-02-01T05:35:22;10.50;59.30
6556;DHT22;3311;48.32423000;14.29074500;2023-02-01T05:37:49;10.50;59.30
6556;DHT22;3311;48.32423000;14.29074500;2023-02-01T05:40:16;10.50;59.40
6556;DHT22;3311;48.32423000;14.29074500;2023-02-01T05:42:43;10.60;59.20
6556;DHT22;3311;48.32423000;14.29074500;2023-02-01T05:45:11;10.60;59.10
6556;DHT22;3311;48.32423000;14.29074500;2023-02-01T05:47:38;10.50;59.10
6556;DHT22;3311;48.32423000;14.29074500;2023-02-01T05:50:07;10.50;59.30
6556;DHT22;3311;48.32423000;14.29074500;2023-02-01T05:52:35;10.60;59.30
6556;DHT22;3311;48.32423000;14.29074500;2023-02-01T05:55:03;10.60;59.20
6556;DHT22;3311;48.32423000;14.29074500;2023-02-01T05:57:31;10.60;59.10
6556;DHT22;3311;48.32423000;14.29074500;2023-02-01T05:59:58;10.60;59.40
6556;DHT22;3311;48.32423000;14.29074500;2023-02-01T06:02:25;10.70;59.20
6556;DHT22;3311;48.32423000;14.29074500;2023-02-01T06:04:53;10.80;59.00
6556;DHT22;3311;48.32423000;14.29074500;2023-02-01T06:07:20;10.70;58.80
6556;DHT22;3311;48.32423000;14.29074500;2023-02-01T06:09:49;10.70;58.90
6556;DHT22;3311;48.32423000;14.29074500;2023-02-01T06:12:16;10.70;58.80
6556;DHT22;3311;48.32423000;14.29074500;2023-02-01T06:14:43;10.70;58.90
6556;DHT22;3311;48.32423000;14.29074500;2023-02-01T06:17:11;10.60;58.90
6556;DHT22;3311;48.32423000;14.29074500;2023-02-01T06:19:38;10.60;58.90
6556;DHT22;3311;48.32423000;14.29074500;2023-02-01T06:22:06;10.60;58.90
6556;DHT22;3311;48.32423000;14.29074500;2023-02-01T06:24:33;10.50;58.90
6556;DHT22;3311;48.32423000;14.29074500;2023-02-01T06:27:02;10.50;59.00
6556;DHT22;3311;48.32423000;14.29074500;2023-02-01T06:29:29;10.50;59.00
6556;DHT22;3311;48.32423000;14.29074500;2023-02-01T06:31:56;10.60;59.00
6556;DHT22;3311;48.32423000;14.29074500;2023-02-01T06:34:23;10.60;58.90
6556;DHT22;3311;48.32423000;14.29074500;2023-02-01T06:36:50;10.60;58.80
6556;DHT22;3311;48.32423000;14.29074500;2023-02-01T06:39:19;10.50;58.70
6556;DHT22;3311;48.32423000;14.29074500;2023-02-01T06:41:47;10.50;58.80
6556;DHT22;3311;48.32423000;14.29074500;2023-02-01T06:44:16;10.60;58.80
6556;DHT22;3311;48.32423000;14.29074500;2023-02-01T06:46:43;10.60;58.60
6556;DHT22;3311;48.32423000;14.29074500;2023-02-01T06:49:10;10.60;58.50
6556;DHT22;3311;48.32423000;14.29074500;2023-02-01T06:51:38;10.50;58.60
6556;DHT22;3311;48.32423000;14.29074500;2023-02-01T06:54:05;10.60;58.60
6556;DHT22;3311;48.32423000;14.29074500;2023-02-01T06:56:32;10.60;58.60
6556;DHT22;3311;48.32423000;14.29074500;2023-02-01T06:58:59;10.50;58.60
6556;DHT22;3311;48.32423000;14.29074500;2023-02-01T07:01:31;10.50;58.70
6556;DHT22;3311;48.32423000;14.29074500;2023-02-01T07:03:58;10.50;58.70
6556;DHT22;3311;48.32423000;14.29074500;2023-02-01T07:06:26;10.50;58.70
6556;DHT22;3311;48.32423000;14.29074500;2023-02-01T07:08:53;10.50;58.70
6556;DHT22;3311;48.32423000;14.29074500;2023-02-01T07:11:21;10.60;58.70
6556;DHT22;3311;48.32423000;14.29074500;2023-02-01T07:13:49;10.60;58.60
6556;DHT22;3311;48.32423000;14.29074500;2023-02-01T07:16:17;10.60;58.60
6556;DHT22;3311;48.32423000;14.29074500;2023-02-01T07:18:47;10.60;58.50
6556;DHT22;3311;48.32423000;14.29074500;2023-02-01T07:21:14;10.60;58.60
6556;DHT22;3311;48.32423000;14.29074500;2023-02-01T07:23:41;10.60;58.70
6556;DHT22;3311;48.32423000;14.29074500;2023-02-01T07:26:11;10.60;58.70
6556;DHT22;3311;48.32423000;14.29074500;2023-02-01T07:28:39;10.60;58.70
6556;DHT22;3311;48.32423000;14.29074500;2023-02-01T07:31:08;10.60;58.80
6556;DHT22;3311;48.32423000;14.29074500;2023-02-01T07:33:36;10.60;58.80
6556;DHT22;3311;48.32423000;14.29074500;2023-02-01T07:36:07;10.60;58.70
6556;DHT22;3311;48.32423000;14.29074500;2023-02-01T07:38:34;10.40;58.90
6556;DHT22;3311;48.32423000;14.29074500;2023-02-01T07:41:03;10.50;59.20
6556;DHT22;3311;48.32423000;14.29074500;2023-02-01T07:43:31;10.60;59.00
6556;DHT22;3311;48.32423000;14.29074500;2023-02-01T07:45:58;10.60;59.00
6556;DHT22;3311;48.32423000;14.29074500;2023-02-01T07:48:27;10.60;59.00
6556;DHT22;3311;48.32423000;14.29074500;2023-02-01T07:50:57;10.60;58.80
6556;DHT22;3311;48.32423000;14.29074500;2023-02-01T07:53:27;10.50;59.00
6556;DHT22;3311;48.32423000;14.29074500;2023-02-01T07:55:55;10.50;59.10
6556;DHT22;3311;48.32423000;14.29074500;2023-02-01T07:58:22;10.50;59.10
6556;DHT22;3311;48.32423000;14.29074500;2023-02-01T08:00:50;10.50;59.20
6556;DHT22;3311;48.32423000;14.29074500;2023-02-01T08:03:34;10.30;59.10
6556;DHT22;3311;48.32423000;14.29074500;2023-02-01T08:06:02;10.40;59.50
6556;DHT22;3311;48.32423000;14.29074500;2023-02-01T08:08:31;10.40;59.40
6556;DHT22;3311;48.32423000;14.29074500;2023-02-01T08:10:58;10.50;59.30
6556;DHT22;3311;48.32423000;14.29074500;2023-02-01T08:13:25;10.50;59.20
6556;DHT22;3311;48.32423000;14.29074500;2023-02-01T08:15:57;10.40;59.30
6556;DHT22;3311;48.32423000;14.29074500;2023-02-01T08:18:24;10.40;59.50
6556;DHT22;3311;48.32423000;14.29074500;2023-02-01T08:20:51;10.50;59.20
6556;DHT22;3311;48.32423000;14.29074500;2023-02-01T08:23:18;10.50;59.30
6556;DHT22;3311;48.32423000;14.29074500;2023-02-01T08:25:47;10.40;59.30
6556;DHT22;3311;48.32423000;14.29074500;2023-02-01T08:28:14;10.40;59.40
6556;DHT22;3311;48.32423000;14.29074500;2023-02-01T08:30:42;10.30;59.50
6556;DHT22;3311;48.32423000;14.29074500;2023-02-01T08:33:09;10.40;59.70
6556;DHT22;3311;48.32423000;14.29074500;2023-02-01T08:35:38;10.40;59.60
6556;DHT22;3311;48.32423000;14.29074500;2023-02-01T08:38:05;10.30;59.70
6556;DHT22;3311;48.32423000;14.29074500;2023-02-01T08:40:32;10.40;59.70
6556;DHT22;3311;48.32423000;14.29074500;2023-02-01T08:43:01;10.40;59.70
6556;DHT22;3311;48.32423000;14.29074500;2023-02-01T08:45:29;10.30;59.70
6556;DHT22;3311;48.32423000;14.29074500;2023-02-01T08:47:57;10.30;59.90
6556;DHT22;3311;48.32423000;14.29074500;2023-02-01T08:50:24;10.30;59.90
6556;DHT22;3311;48.32423000;14.29074500;2023-02-01T08:52:52;10.20;60.00
6556;DHT22;3311;48.32423000;14.29074500;2023-02-01T08:55:20;10.30;60.00
6556;DHT22;3311;48.32423000;14.29074500;2023-02-01T08:57:48;10.40;59.90
6556;DHT22;3311;48.32423000;14.29074500;2023-02-01T09:00:17;10.40;59.90
6556;DHT22;3311;48.32423000;14.29074500;2023-02-01T09:02:45;10.40;59.90
6556;DHT22;3311;48.32423000;14.29074500;2023-02-01T09:05:12;10.40;59.80
6556;DHT22;3311;48.32423000;14.29074500;2023-02-01T09:07:42;10.40;59.90
6556;DHT22;3311;48.32423000;14.29074500;2023-02-01T09:10:10;10.40;59.70
6556;DHT22;3311;48.32423000;14.29074500;2023-02-01T09:12:37;10.40;60.00
6556;DHT22;3311;48.32423000;14.29074500;2023-02-01T09:15:06;10.40;60.00
6556;DHT22;3311;48.32423000;14.29074500;2023-02-01T09:17:35;10.40;60.00
6556;DHT22;3311;48.32423000;14.29074500;2023-02-01T09:20:03;10.50;60.00
6556;DHT22;3311;48.32423000;14.29074500;2023-02-01T09:22:31;10.50;60.20
6556;DHT22;3311;48.32423000;14.29074500;2023-02-01T09:24:58;10.40;60.20
6556;DHT22;3311;48.32423000;14.29074500;2023-02-01T09:27:25;10.40;60.60
6556;DHT22;3311;48.32423000;14.29074500;2023-02-01T09:29:52;10.50;60.00
6556;DHT22;3311;48.32423000;14.29074500;2023-02-01T09:32:20;10.50;60.00
6556;DHT22;3311;48.32423000;14.29074500;2023-02-01T09:34:50;10.50;60.00
6556;DHT22;3311;48.32423000;14.29074500;2023-02-01T09:37:17;10.60;60.10
6556;DHT22;3311;48.32423000;14.29074500;2023-02-01T09:39:45;10.50;60.00
6556;DHT22;3311;48.32423000;14.29074500;2023-02-01T09:42:22;10.50;60.10
6556;DHT22;3311;48.32423000;14.29074500;2023-02-01T09:45:10;10.60;60.10
6556;DHT22;3311;48.32423000;14.29074500;2023-02-01T09:47:47;10.60;60.20
6556;DHT22;3311;48.32423000;14.29074500;2023-02-01T09:50:18;10.60;60.40
6556;DHT22;3311;48.32423000;14.29074500;2023-02-01T09:52:52;10.70;60.30
6556;DHT22;3311;48.32423000;14.29074500;2023-02-01T09:55:24;10.70;60.10
6556;DHT22;3311;48.32423000;14.29074500;2023-02-01T09:57:56;10.70;60.20
6556;DHT22;3311;48.32423000;14.29074500;2023-02-01T10:00:27;10.80;60.10
6556;DHT22;3311;48.32423000;14.29074500;2023-02-01T10:02:56;10.80;59.90
6556;DHT22;3311;48.32423000;14.29074500;2023-02-01T10:05:44;10.80;60.00
6556;DHT22;3311;48.32423000;14.29074500;2023-02-01T10:08:21;10.70;60.30
6556;DHT22;3311;48.32423000;14.29074500;2023-02-01T10:10:53;10.70;60.20
6556;DHT22;3311;48.32423000;14.29074500;2023-02-01T10:13:33;10.70;60.30
6556;DHT22;3311;48.32423000;14.29074500;2023-02-01T10:16:12;10.80;60.10
6556;DHT22;3311;48.32423000;14.29074500;2023-02-01T10:18:52;10.80;60.00
6556;DHT22;3311;48.32423000;14.29074500;2023-02-01T10:21:36;10.70;60.30
6556;DHT22;3311;48.32423000;14.29074500;2023-02-01T10:24:38;10.70;60.60
6556;DHT22;3311;48.32423000;14.29074500;2023-02-01T10:27:13;10.70;60.70
6556;DHT22;3311;48.32423000;14.29074500;2023-02-01T10:29:43;10.80;60.60
6556;DHT22;3311;48.32423000;14.29074500;2023-02-01T10:32:16;10.90;60.40
6556;DHT22;3311;48.32423000;14.29074500;2023-02-01T10:34:46;10.90;60.50
6556;DHT22;3311;48.32423000;14.29074500;2023-02-01T10:37:26;10.90;60.50
6556;DHT22;3311;48.32423000;14.29074500;2023-02-01T10:39:55;10.80;60.90
6556;DHT22;3311;48.32423000;14.29074500;2023-02-01T10:42:26;10.80;60.80
6556;DHT22;3311;48.32423000;14.29074500;2023-02-01T10:44:55;10.90;61.00
6556;DHT22;3311;48.32423000;14.29074500;2023-02-01T10:47:24;11.00;61.10
6556;DHT22;3311;48.32423000;14.29074500;2023-02-01T10:49:58;11.00;60.90
6556;DHT22;3311;48.32423000;14.29074500;2023-02-01T10:52:38;11.00;60.60
6556;DHT22;3311;48.32423000;14.29074500;2023-02-01T10:55:27;10.90;60.80
6556;DHT22;3311;48.32423000;14.29074500;2023-02-01T10:57:56;10.90;61.10
6556;DHT22;3311;48.32423000;14.29074500;2023-02-01T11:00:24;10.90;61.00
6556;DHT22;3311;48.32423000;14.29074500;2023-02-01T11:02:52;10.80;61.00
6556;DHT22;3311;48.32423000;14.29074500;2023-02-01T11:05:20;10.80;61.40
6556;DHT22;3311;48.32423000;14.29074500;2023-02-01T11:07:52;10.70;61.30
6556;DHT22;3311;48.32423000;14.29074500;2023-02-01T11:10:38;10.70;61.50
6556;DHT22;3311;48.32423000;14.29074500;2023-02-01T11:13:13;10.80;61.70
6556;DHT22;3311;48.32423000;14.29074500;2023-02-01T11:15:44;10.80;61.30
6556;DHT22;3311;48.32423000;14.29074500;2023-02-01T11:18:17;10.70;61.20
6556;DHT22;3311;48.32423000;14.29074500;2023-02-01T11:20:46;10.80;61.40
6556;DHT22;3311;48.32423000;14.29074500;2023-02-01T11:23:18;10.80;61.20
6556;DHT22;3311;48.32423000;14.29074500;2023-02-01T11:25:51;10.80;61.00
6556;DHT22;3311;48.32423000;14.29074500;2023-02-01T11:28:22;10.70;61.10
6556;DHT22;3311;48.32423000;14.29074500;2023-02-01T11:30:52;10.70;61.40
6556;DHT22;3311;48.32423000;14.29074500;2023-02-01T11:33:24;10.80;61.30
6556;DHT22;3311;48.32423000;14.29074500;2023-02-01T11:35:56;10.90;61.40
6556;DHT22;3311;48.32423000;14.29074500;2023-02-01T11:38:29;10.90;61.20
6556;DHT22;3311;48.32423000;14.29074500;2023-02-01T11:41:12;11.00;61.30
6556;DHT22;3311;48.32423000;14.29074500;2023-02-01T11:43:55;11.00;61.20
6556;DHT22;3311;48.32423000;14.29074500;2023-02-01T11:46:26;11.20;61.10
6556;DHT22;3311;48.32423000;14.29074500;2023-02-01T11:48:56;11.20;61.00
6556;DHT22;3311;48.32423000;14.29074500;2023-02-01T11:51:35;11.20;60.80
6556;DHT22;3311;48.32423000;14.29074500;2023-02-01T11:54:22;11.20;61.00
6556;DHT22;3311;48.32423000;14.29074500;2023-02-01T11:57:01;11.20;60.80
6556;DHT22;3311;48.32423000;14.29074500;2023-02-01T11:59:52;11.10;60.80
6556;DHT22;3311;48.32423000;14.29074500;2023-02-01T12:03:00;11.10;60.70
6556;DHT22;3311;48.32423000;14.29074500;2023-02-01T12:05:37;11.10;61.00
6556;DHT22;3311;48.32423000;14.29074500;2023-02-01T12:08:24;11.10;60.70
6556;DHT22;3311;48.32423000;14.29074500;2023-02-01T12:11:08;11.20;61.40
6556;DHT22;3311;48.32423000;14.29074500;2023-02-01T12:13:47;11.20;60.80
6556;DHT22;3311;48.32423000;14.29074500;2023-02-01T12:16:27;11.30;60.90
6556;DHT22;3311;48.32423000;14.29074500;2023-02-01T12:19:08;11.30;60.80
6556;DHT22;3311;48.32423000;14.29074500;2023-02-01T12:21:54;11.20;60.60
6556;DHT22;3311;48.32423000;14.29074500;2023-02-01T12:24:46;11.20;60.40
6556;DHT22;3311;48.32423000;14.29074500;2023-02-01T12:27:56;11.30;60.80
6556;DHT22;3311;48.32423000;14.29074500;2023-02-01T12:30:48;11.20;60.90
6556;DHT22;3311;48.32423000;14.29074500;2023-02-01T12:33:23;11.10;61.00
6556;DHT22;3311;48.32423000;14.29074500;2023-02-01T12:36:03;11.10;60.90
6556;DHT22;3311;48.32423000;14.29074500;2023-02-01T12:38:50;11.20;60.80
6556;DHT22;3311;48.32423000;14.29074500;2023-02-01T12:41:33;11.20;60.60
6556;DHT22;3311;48.32423000;14.29074500;2023-02-01T12:44:08;11.10;60.40
6556;DHT22;3311;48.32423000;14.29074500;2023-02-01T12:46:41;11.10;60.30
6556;DHT22;3311;48.32423000;14.29074500;2023-02-01T12:49:14;11.10;60.70
6556;DHT22;3311;48.32423000;14.29074500;2023-02-01T12:51:47;11.10;60.70
6556;DHT22;3311;48.32423000;14.29074500;2023-02-01T12:54:20;11.20;60.50
6556;DHT22;3311;48.32423000;14.29074500;2023-02-01T12:56:51;11.20;60.40
6556;DHT22;3311;48.32423000;14.29074500;2023-02-01T12:59:26;11.20;60.70
6556;DHT22;3311;48.32423000;14.29074500;2023-02-01T13:01:58;11.10;60.70
6556;DHT22;3311;48.32423000;14.29074500;2023-02-01T13:04:32;11.10;60.40
6556;DHT22;3311;48.32423000;14.29074500;2023-02-01T13:07:06;11.30;60.20
6556;DHT22;3311;48.32423000;14.29074500;2023-02-01T13:09:40;11.20;60.10
6556;DHT22;3311;48.32423000;14.29074500;2023-02-01T13:12:12;11.30;60.40
6556;DHT22;3311;48.32423000;14.29074500;2023-02-01T13:14:45;11.20;60.50
6556;DHT22;3311;48.32423000;14.29074500;2023-02-01T13:17:16;11.20;60.40
6556;DHT22;3311;48.32423000;14.29074500;2023-02-01T13:19:50;11.20;61.00
6556;DHT22;3311;48.32423000;14.29074500;2023-02-01T13:22:22;11.10;60.80
6556;DHT22;3311;48.32423000;14.29074500;2023-02-01T13:24:53;11.20;60.60
6556;DHT22;3311;48.32423000;14.29074500;2023-02-01T13:27:22;11.10;60.50
6556;DHT22;3311;48.32423000;14.29074500;2023-02-01T13:29:57;11.10;60.70
6556;DHT22;3311;48.32423000;14.29074500;2023-02-01T13:32:50;11.00;60.90
6556;DHT22;3311;48.32423000;14.29074500;2023-02-01T13:41:28;11.10;60.90
6556;DHT22;3311;48.32423000;14.29074500;2023-02-01T13:43:59;11.20;60.50
6556;DHT22;3311;48.32423000;14.29074500;2023-02-01T13:46:29;11.20;60.30
6556;DHT22;3311;48.32423000;14.29074500;2023-02-01T13:48:59;11.10;60.50
6556;DHT22;3311;48.32423000;14.29074500;2023-02-01T13:51:36;11.20;60.20
6556;DHT22;3311;48.32423000;14.29074500;2023-02-01T13:54:04;11.00;60.50
6556;DHT22;3311;48.32423000;14.29074500;2023-02-01T13:56:41;11.10;60.50
6556;DHT22;3311;48.32423000;14.29074500;2023-02-01T13:59:48;11.10;60.20
6556;DHT22;3311;48.32423000;14.29074500;2023-02-01T14:02:47;11.20;60.20
6556;DHT22;3311;48.32423000;14.29074500;2023-02-01T14:08:23;11.30;60.30
6556;DHT22;3311;48.32423000;14.29074500;2023-02-01T14:10:53;11.30;60.10
6556;DHT22;3311;48.32423000;14.29074500;2023-02-01T14:13:28;11.30;60.10
6556;DHT22;3311;48.32423000;14.29074500;2023-02-01T14:16:15;11.30;60.30
6556;DHT22;3311;48.32423000;14.29074500;2023-02-01T14:18:58;11.30;60.10